Station: Robe Airport  

  Atmospheric Gas Attenuation - ITU Rec 676-11   ----------------- dB/100km -----------------
Date Time Temp RH % AH g/m3 Dew Point Wind Direction Speed kph Gust kph Barometer mB Rainfall Since 9am 24GHz 47GHz 76GHz 122GHz 134GHz 241GHz
07/05 23:00 14.4 73 9.02 9.6 17 35 1027.5 0 20.4 26.9 41.8 109.7 104.4 359.4
07/05 22:50 14.2 74 9.04 9.6 19 24 1027.6 0 20.5 27.0 42.0 110.2 104.9 361.3
07/05 22:40 14.1 73 8.86 9.3 22 28 1027.9 0 20.1 26.8 41.4 108.4 102.7 353.4
07/05 22:30 14.4 72 8.9 9.4 20 30 1027.7 0 20.2 26.8 41.4 108.4 102.8 353.8
07/05 22:20 14.4 70 8.65 9 19 24 1027.6 0 19.7 26.3 40.3 105.7 99.5 342.2
07/05 22:10 14.4 69 8.53 8.8 22 30 1027.7 0 19.4 26.1 39.9 104.4 97.9 336.6
07/05 22:00 14.2 72 8.79 9.2 19 28 1027.8 0 20.0 26.6 41.0 107.5 101.6 349.6
07/05 21:50 14.3 74 9.09 9.7 26 32 1027.9 0 20.6 27.1 42.2 110.6 105.5 363.3
07/05 21:40 14.4 70 8.65 9 28 37 1027.9 0 19.6 26.4 40.4 105.7 99.5 342.2
07/05 21:30 14.3 68 8.35 8.5 22 35 1028 0 19.0 25.9 39.2 102.7 95.7 328.8
07/05 21:20 14.3 67 8.23 8.2 20 30 1028 0 18.8 25.7 38.7 101.4 94.1 323.3
07/05 21:10 14.3 64 7.86 7.6 26 33 1028 0 18.0 25.1 37.3 97.5 89.3 306.5
07/05 21:00 14.1 71 8.62 8.9 19 32 1028 0 19.6 26.4 40.4 105.8 99.5 342.2
07/05 20:50 14.4 69 8.53 8.8 22 33 1027.9 0 19.4 26.2 39.9 104.4 97.9 336.7
07/05 20:40 14.5 67 8.33 8.6 20 26 1027.8 0 19.0 25.8 39.0 102.2 95.2 327.0
07/05 20:30 14.4 69 8.53 8.8 19 30 1027.7 0 19.4 26.1 39.9 104.4 97.9 336.6
07/05 20:20 14.4 69 8.53 8.8 19 22 1027.8 0 19.4 26.2 39.9 104.4 97.9 336.7
07/05 20:10 14.4 67 8.28 8.3 24 30 1027.7 0 18.9 25.7 38.9 101.8 94.6 325.1
07/05 20:00 14.3 68 8.35 8.5 19 28 1027.7 0 19.0 25.9 39.2 102.6 95.6 328.8
07/05 19:50 14.3 67 8.23 8.2 20 24 1027.6 0 18.8 25.7 38.7 101.3 94.1 323.2
07/05 19:40 14.2 66 8.06 8.1 19 26 1027.8 0 18.4 25.5 38.1 99.7 92.0 315.9
07/05 19:30 14.1 66 8.01 7.9 20 35 1027.9 0 18.3 25.4 37.9 99.3 91.5 314.1
07/05 19:20 14.1 65 7.89 7.6 20 26 1027.9 0 18.0 25.2 37.5 98.0 89.9 308.6
07/05 19:10 14 66 7.96 7.7 15 20 1027.9 0 18.2 25.4 37.8 98.9 90.9 312.2
07/05 19:00 14.1 65 7.89 7.6 19 32 1027.9 0 18.0 25.2 37.5 98.0 89.9 308.6
07/05 18:50 14.1 62 7.52 7.1 17 20 1027.9 0 17.3 24.6 36.0 94.2 85.2 292.0
07/05 18:40 14 62 7.48 6.8 24 33 1027.9 0 17.2 24.6 35.9 93.9 84.7 290.5
07/05 18:30 13.9 67 8.03 7.9 22 37 1027.8 0 18.4 25.5 38.1 99.7 92.0 315.8
07/05 18:20 13.5 73 8.54 8.7 20 28 1027.8 0 19.5 26.4 40.4 105.7 99.2 341.0
07/05 18:10 13.5 75 8.77 9.1 19 26 1027.8 0 20.0 26.8 41.3 108.2 102.3 351.8
07/05 18:00 13.4 76 8.84 9.3 19 32 1027.8 0 20.1 27.0 41.6 109.1 103.3 355.6
07/05 17:50 13.8 69 8.22 8.2 17 20 1027.6 0 18.8 25.8 38.9 101.9 94.5 324.8
07/05 17:40 13.8 66 7.86 7.7 17 20 1027.5 0 18.0 25.2 37.5 98.1 89.8 308.3
07/05 17:30 13.4 72 8.37 8.5 13 22 1027.5 0 19.1 26.2 39.7 104.0 97.0 333.4
07/05 17:20 13 74 8.39 8.6 13 17 1027.7 0 19.2 26.3 40.0 104.8 97.8 336.1
07/05 17:10 12.7 77 8.57 8.9 13 17 1028.1 0 19.6 26.7 40.9 107.2 100.6 346.0
07/05 17:00 12.7 78 8.68 9 20 35 1028 0 19.8 26.9 41.4 108.4 102.1 351.2
07/05 16:50 13.5 70 8.19 8.1 30 35 1028 0 18.7 25.9 39.0 102.0 94.5 324.8
07/05 16:40 13.8 65 7.74 7.5 20 28 1027.8 0 17.7 25.1 37.0 96.8 88.3 303.0
07/05 16:30 14 65 7.84 7.5 20 32 1027.7 0 17.9 25.2 37.3 97.6 89.4 306.7
07/05 16:20 14 65 7.84 7.5 17 20 1027.6 0 17.9 25.2 37.3 97.6 89.4 306.7
07/05 16:10 13.6 62 7.3 6.4 17 19 1027.6 0 16.8 24.4 35.4 92.5 82.9 283.9
07/05 16:00 13.9 63 7.55 7 17 32 1027.6 0 17.3 24.7 36.2 94.7 85.7 294.0
07/05 15:50 13.9 66 7.91 7.6 11 15 1027.7 0 18.1 25.3 37.6 98.5 90.4 310.3
07/05 15:40 13.4 71 8.25 8.2 13 15 1027.7 0 18.8 26.0 39.2 102.7 95.4 327.9
07/05 15:30 13.1 73 8.33 8.4 20 35 1027.8 0 19.0 26.2 39.7 104.0 96.9 332.9
07/05 15:20 13.2 71 8.15 8.2 26 30 1027.9 0 18.6 25.9 38.9 101.9 94.4 324.1
07/05 15:10 13.8 64 7.63 7.1 19 22 1027.8 0 17.5 24.9 36.6 95.7 86.9 298.0
07/05 15:00 13.4 69 8.02 7.8 24 39 1027.8 0 18.4 25.6 38.3 100.3 92.4 317.3
07/05 14:50 14 62 7.48 7 13 19 1027.8 0 17.2 24.6 35.9 93.9 84.7 290.5
07/05 14:40 14 62 7.48 6.8 19 20 1027.6 0 17.2 24.6 35.9 93.9 84.7 290.5
07/05 14:30 14.2 62 7.57 7 19 30 1027.6 0 17.4 24.7 36.2 94.5 85.7 293.8
07/05 14:20 14.6 60 7.51 6.9 17 20 1027.6 0 17.2 24.5 35.8 93.5 84.5 289.6
07/05 14:10 13.7 64 7.58 7 13 19 1027.9 0 17.4 24.8 36.4 95.3 86.4 296.1
07/05 14:00 13.4 65 7.56 7 20 33 1028.1 0 17.4 24.9 36.5 95.4 86.4 296.4
07/05 13:50 13.9 62 7.43 6.7 22 26 1028 0 17.1 24.6 35.8 93.5 84.2 288.7
07/05 13:40 14.3 56 6.88 5.6 24 30 1027.9 0 15.9 23.6 33.5 87.4 76.9 263.0
07/05 13:30 15 57 7.31 6.6 22 32 1027.9 0 16.8 24.1 34.8 91.0 81.5 279.4
07/05 13:20 14.5 57 7.09 6.1 20 24 1027.9 0 16.3 23.9 34.2 89.3 79.3 271.5
07/05 13:10 14.6 58 7.26 6.6 20 30 1027.9 0 16.7 24.1 34.8 90.9 81.3 278.6
07/05 13:00 14.1 61 7.4 6.7 20 32 1028.1 0 17.0 24.5 35.6 93.0 83.6 286.6
07/05 12:50 13.9 62 7.43 6.7 15 19 1028.2 0 17.1 24.6 35.8 93.5 84.2 288.7
07/05 12:40 14.1 57 6.92 5.7 24 30 1028.1 0 16.0 23.7 33.7 88.1 77.6 265.4
07/05 12:30 14.3 57 7 5.9 22 35 1028.2 0 16.2 23.8 34.0 88.7 78.4 268.3
07/05 12:20 14.5 53 6.59 5 20 24 1028.2 0 15.3 23.1 32.3 84.3 73.1 249.9
07/05 12:10 14.5 54 6.72 5.5 26 33 1028.3 0 15.6 23.3 32.8 85.6 74.7 255.5
07/05 12:00 14.1 54 6.55 4.9 22 30 1028.5 0 15.2 23.2 32.4 84.4 73.0 249.5
07/05 11:50 14 52 6.27 4.5 28 33 1028.5 0 14.6 22.8 31.4 81.7 69.7 237.7
07/05 11:40 13.8 53 6.32 4.4 24 28 1028.5 0 14.7 22.9 31.6 82.4 70.5 240.5
07/05 11:30 14.1 56 6.8 5.5 22 37 1028.6 0 15.7 23.5 33.3 86.9 76.1 260.3
07/05 11:20 14.4 56 6.92 5.7 26 32 1028.6 0 16.0 23.7 33.6 87.8 77.3 264.6
07/05 11:10 14 55 6.63 5.3 24 30 1028.7 0 15.4 23.3 32.7 85.3 74.1 253.3
07/05 11:00 15.1 54 6.97 5.9 26 37 1028.7 0 16.1 23.6 33.5 87.5 77.3 264.5
07/05 10:50 14.7 52 6.55 4.9 26 35 1028.5 0 15.2 23.0 32.1 83.8 72.5 247.6
07/05 10:40 13.4 54 6.28 4.3 28 37 1028.5 0 14.7 22.9 31.6 82.4 70.3 239.9
07/05 10:30 13.7 59 6.99 5.8 26 35 1028.5 0 16.2 23.9 34.2 89.3 78.9 270.0
07/05 10:20 13.6 62 7.3 6.4 26 32 1028.5 0 16.8 24.4 35.4 92.5 82.9 284.1
07/05 10:10 13.3 63 7.28 6.4 22 28 1028.4 0 16.8 24.5 35.5 92.7 83.0 284.2
07/05 10:00 13.1 61 6.96 5.8 26 39 1028.5 0 16.1 24.1 34.3 89.6 79.1 270.7
07/05 09:50 14 57 6.88 5.6 24 32 1028.3 0 15.9 23.7 33.6 87.8 77.2 264.1
07/05 09:40 13.7 59 6.99 5.8 22 30 1028.3 0 16.2 23.9 34.2 89.2 78.9 269.9
07/05 09:30 13.8 55 6.55 4.9 26 39 1028.2 0 15.2 23.2 32.5 84.7 73.3 250.3
07/05 09:20 13.8 54 6.43 4.6 30 33 1028.1 0 15.0 23.0 32.0 83.5 71.8 245.1
07/05 09:10 13.6 52 6.12 3.9 28 30 1028 0 14.3 22.6 31.0 80.6 68.2 232.4
07/05 09:00 13.4 55 6.39 4.6 30 39 1027.9 0 14.9 23.1 32.0 83.5 71.7 244.6
07/05 08:50 13.4 56 6.51 4.8 24 35 1027.9 1.2 15.2 23.3 32.5 84.7 73.1 249.8
07/05 08:40 13.1 51 5.82 3.4 30 35 1027.8 1.2 13.7 22.3 30.0 78.1 65.0 221.0
07/05 08:30 12.9 55 6.2 4.1 28 37 1027.7 1.2 14.5 22.9 31.5 82.1 69.8 237.8
07/05 08:20 12.5 56 6.16 3.9 30 35 1027.6 1.2 14.4 22.9 31.5 82.1 69.6 237.2
07/05 08:10 12.8 57 6.39 4.5 28 32 1027.5 1.2 14.9 23.2 32.2 84.1 72.2 246.3
07/05 08:00 12.5 60 6.6 5 24 35 1027.5 1.2 15.4 23.6 33.2 86.5 75.1 256.5
07/05 07:50 12.1 58 6.22 4.1 28 37 1027.5 1.2 14.6 23.1 31.9 83.1 70.7 241.0
07/05 07:40 11.7 56 5.86 3.2 24 32 1027.3 1.2 13.8 22.7 30.7 79.8 66.6 226.5
07/05 07:30 11.5 59 6.1 3.8 26 35 1027.3 1.2 14.4 23.1 31.7 82.5 69.7 237.5
07/05 07:20 11.3 61 6.22 4 30 37 1027.1 1.2 14.6 23.3 32.2 83.9 71.4 243.3
07/05 07:10 11.1 64 6.45 4.7 19 24 1027 1.2 15.1 23.7 33.1 86.4 74.5 254.2
07/05 07:00 10.8 68 6.72 5.1 22 39 1026.9 1.2 15.7 24.2 34.3 89.6 78.2 267.3
07/05 06:50 11.4 60 6.16 3.9 35 43 1026.7 1.2 14.5 23.2 31.9 83.1 70.5 240.3
07/05 06:40 11.3 56 5.71 2.8 20 28 1026.7 1.2 13.5 22.5 30.2 78.7 65.0 221.0
07/05 06:30 11.6 59 6.13 3.9 28 39 1026.6 1.2 14.4 23.1 31.7 82.6 70.0 238.4

Last Refresh: 07-May-2026 23:10:30

Bureau of Meteorology